createdAt,value
2022-09-28T00:02:28.144Z,3.53
2022-09-28T00:04:56.171Z,2.93
2022-09-28T00:07:24.169Z,3.63
2022-09-28T00:09:52.107Z,3.57
2022-09-28T00:12:21.115Z,3.20
2022-09-28T00:14:49.455Z,2.83
2022-09-28T00:17:22.160Z,2.90
2022-09-28T00:19:50.335Z,3.40
2022-09-28T00:22:18.004Z,3.17
2022-09-28T00:24:45.945Z,2.80
2022-09-28T00:27:13.935Z,3.20
2022-09-28T00:29:41.907Z,3.17
2022-09-28T00:32:11.753Z,3.13
2022-09-28T00:34:43.281Z,3.30
2022-09-28T00:37:11.220Z,3.93
2022-09-28T00:39:41.739Z,3.30
2022-09-28T00:42:14.246Z,3.30
2022-09-28T00:44:44.001Z,3.23
2022-09-28T00:47:37.289Z,3.00
2022-09-28T00:50:08.098Z,3.67
2022-09-28T00:52:38.064Z,3.80
2022-09-28T00:55:08.133Z,3.60
2022-09-28T00:57:36.067Z,3.57
2022-09-28T01:00:04.624Z,3.40
2022-09-28T01:02:32.875Z,3.83
2022-09-28T01:05:01.415Z,3.80
2022-09-28T01:07:32.207Z,3.40
2022-09-28T01:10:00.157Z,4.13
2022-09-28T01:12:28.203Z,4.13
2022-09-28T01:14:55.925Z,3.67
2022-09-28T01:17:25.900Z,3.70
2022-09-28T01:20:23.697Z,3.10
2022-09-28T01:23:21.154Z,3.70
2022-09-28T01:25:54.075Z,3.37
2022-09-28T01:28:24.749Z,3.77
2022-09-28T01:30:58.006Z,3.57
2022-09-28T01:33:27.815Z,3.40
2022-09-28T01:35:58.613Z,3.93
2022-09-28T01:38:28.064Z,3.40
2022-09-28T01:40:56.311Z,3.70
2022-09-28T01:43:26.699Z,3.43
2022-09-28T01:45:56.922Z,3.40
2022-09-28T01:48:27.529Z,4.20
2022-09-28T01:50:56.376Z,4.10
2022-09-28T01:53:25.820Z,3.60
2022-09-28T01:55:55.396Z,3.80
2022-09-28T01:58:26.154Z,3.90
2022-09-28T02:00:57.496Z,4.47
2022-09-28T02:03:26.683Z,4.13
2022-09-28T02:05:55.897Z,3.57
2022-09-28T02:08:26.920Z,3.50
2022-09-28T02:10:57.229Z,3.87
2022-09-28T02:13:27.396Z,4.00
2022-09-28T02:15:58.452Z,3.37
2022-09-28T02:18:26.253Z,3.80
2022-09-28T02:20:57.217Z,3.50
2022-09-28T02:23:25.196Z,3.57
2022-09-28T02:25:54.388Z,4.00
2022-09-28T02:28:22.226Z,3.90
2022-09-28T02:30:51.506Z,4.30
2022-09-28T02:33:21.058Z,3.70
2022-09-28T02:35:48.900Z,4.57
2022-09-28T02:38:16.581Z,3.80
2022-09-28T02:40:45.158Z,4.13
2022-09-28T02:43:15.648Z,4.30
2022-09-28T02:45:54.717Z,4.27
2022-09-28T02:48:45.720Z,4.10
2022-09-28T02:51:21.757Z,6.53
2022-09-28T02:54:03.862Z,8.80
2022-09-28T02:56:42.248Z,9.83
2022-09-28T02:59:13.942Z,7.53
2022-09-28T03:01:48.132Z,8.20
2022-09-28T03:04:20.816Z,6.30
2022-09-28T03:06:49.651Z,6.40
2022-09-28T03:09:20.740Z,6.40
2022-09-28T03:11:50.485Z,5.60
2022-09-28T03:14:18.672Z,5.40
2022-09-28T03:16:48.064Z,5.27
2022-09-28T03:19:16.593Z,4.77
2022-09-28T03:21:44.501Z,5.50
2022-09-28T03:24:12.678Z,5.27
2022-09-28T03:26:40.541Z,4.50
2022-09-28T03:29:08.769Z,4.83
2022-09-28T03:31:36.843Z,4.47
2022-09-28T03:34:06.803Z,4.70
2022-09-28T03:36:34.604Z,4.47
2022-09-28T03:39:02.440Z,4.10
2022-09-28T03:41:30.641Z,4.73
2022-09-28T03:43:58.594Z,4.40
2022-09-28T03:46:26.882Z,4.37
2022-09-28T03:48:57.456Z,4.43
2022-09-28T03:51:27.008Z,4.37
2022-09-28T03:53:54.838Z,4.67
2022-09-28T03:56:22.721Z,4.10
2022-09-28T03:58:50.579Z,4.20
2022-09-28T04:01:18.577Z,4.90
2022-09-28T04:03:46.510Z,4.40
2022-09-28T04:06:14.710Z,4.67
2022-09-28T04:08:44.139Z,4.43
2022-09-28T04:11:12.019Z,4.70
2022-09-28T04:13:40.545Z,4.30
2022-09-28T04:16:08.558Z,5.40
2022-09-28T04:18:36.273Z,5.80
2022-09-28T04:21:06.567Z,5.87
2022-09-28T04:23:34.584Z,8.20
2022-09-28T04:26:04.125Z,8.07
2022-09-28T04:28:49.750Z,9.77
2022-09-28T04:31:18.639Z,8.87
2022-09-28T04:33:46.890Z,9.00
2022-09-28T04:36:14.623Z,7.60
2022-09-28T04:38:52.832Z,7.40
2022-09-28T04:41:23.055Z,6.43
2022-09-28T04:43:51.298Z,6.70
2022-09-28T04:46:19.058Z,6.10
2022-09-28T04:48:46.895Z,6.10
2022-09-28T04:51:14.609Z,6.70
2022-09-28T04:53:42.753Z,6.60
2022-09-28T04:56:11.835Z,6.17
2022-09-28T04:58:40.915Z,6.50
2022-09-28T05:01:10.039Z,5.63
2022-09-28T05:03:37.854Z,8.50
2022-09-28T05:06:09.181Z,7.37
2022-09-28T05:08:37.051Z,7.63
2022-09-28T05:11:06.211Z,7.93
2022-09-28T05:13:38.325Z,8.33
2022-09-28T05:16:08.200Z,7.80
2022-09-28T05:18:36.050Z,8.57
2022-09-28T05:21:03.994Z,8.00
2022-09-28T05:23:34.334Z,8.40
2022-09-28T05:26:02.873Z,8.00
2022-09-28T05:28:30.990Z,7.60
2022-09-28T05:31:01.055Z,7.40
2022-09-28T05:33:30.903Z,7.07
2022-09-28T05:36:01.359Z,7.30
2022-09-28T05:38:29.717Z,7.20
2022-09-28T05:40:57.825Z,6.20
2022-09-28T05:43:25.742Z,6.50
2022-09-28T05:45:55.771Z,6.10
2022-09-28T05:48:24.008Z,5.57
2022-09-28T05:50:53.462Z,6.20
2022-09-28T05:53:21.693Z,6.17
2022-09-28T05:55:49.700Z,6.53
2022-09-28T05:58:18.088Z,6.93
2022-09-28T06:00:45.983Z,8.00
2022-09-28T06:03:14.725Z,7.37
2022-09-28T06:05:42.667Z,7.63
2022-09-28T06:08:12.532Z,6.83
2022-09-28T06:10:40.380Z,7.00
2022-09-28T06:13:08.524Z,7.70
2022-09-28T06:15:37.015Z,8.10
2022-09-28T06:18:05.724Z,8.17
2022-09-28T06:20:35.191Z,7.73
2022-09-28T06:23:03.080Z,7.53
2022-09-28T06:25:33.277Z,8.67
2022-09-28T06:28:01.915Z,9.50
2022-09-28T06:30:30.952Z,9.17
2022-09-28T06:32:59.650Z,8.70
2022-09-28T06:35:28.790Z,9.63
2022-09-28T06:37:56.738Z,8.70
2022-09-28T06:40:24.789Z,10.37
2022-09-28T06:43:00.645Z,9.77
2022-09-28T06:45:29.526Z,10.90
2022-09-28T06:47:58.322Z,11.10
2022-09-28T06:50:26.252Z,13.90
2022-09-28T06:52:54.227Z,19.27
2022-09-28T06:55:22.150Z,20.83
2022-09-28T06:57:59.309Z,20.97
2022-09-28T07:00:27.612Z,19.43
2022-09-28T07:02:55.481Z,20.83
2022-09-28T07:05:24.235Z,18.30
2022-09-28T07:07:52.185Z,17.70
2022-09-28T07:10:20.190Z,17.17
2022-09-28T07:12:48.028Z,16.13
2022-09-28T07:15:17.198Z,16.50
2022-09-28T07:17:58.451Z,17.37
2022-09-28T07:20:28.583Z,16.70
2022-09-28T07:22:58.766Z,16.50
2022-09-28T07:25:30.220Z,16.67
2022-09-28T07:27:59.903Z,16.27
2022-09-28T07:30:32.811Z,14.83
2022-09-28T07:33:01.014Z,14.87
2022-09-28T07:35:29.037Z,15.47
2022-09-28T07:38:01.794Z,14.40
2022-09-28T07:40:48.458Z,15.73
2022-09-28T07:43:20.380Z,15.30
2022-09-28T07:45:49.931Z,16.10
2022-09-28T07:48:19.088Z,15.33
2022-09-28T07:50:50.300Z,14.50
2022-09-28T07:53:18.258Z,15.23
2022-09-28T07:55:51.344Z,14.33
2022-09-28T07:58:20.351Z,14.67
2022-09-28T08:00:50.171Z,13.97
2022-09-28T08:03:18.420Z,14.23
2022-09-28T08:05:46.734Z,14.50
2022-09-28T08:08:14.823Z,14.87
2022-09-28T08:10:46.494Z,15.37
2022-09-28T08:13:16.259Z,16.23
2022-09-28T08:15:44.221Z,15.20
2022-09-28T08:18:13.933Z,14.30
2022-09-28T08:20:59.593Z,14.83
2022-09-28T08:23:27.847Z,14.90
2022-09-28T08:25:55.716Z,14.60
2022-09-28T08:28:24.089Z,15.23
2022-09-28T08:30:51.869Z,15.70
2022-09-28T08:33:21.931Z,16.60
2022-09-28T08:35:55.639Z,15.57
2022-09-28T08:38:23.601Z,15.50
2022-09-28T08:40:57.574Z,16.20
2022-09-28T08:43:37.461Z,15.80
2022-09-28T08:46:05.765Z,15.53
2022-09-28T08:48:56.231Z,16.93
2022-09-28T08:51:36.537Z,15.17
2022-09-28T08:54:09.479Z,15.60
2022-09-28T08:56:41.291Z,14.77
2022-09-28T08:59:12.891Z,15.43
2022-09-28T09:01:43.566Z,15.00
2022-09-28T09:04:13.587Z,14.03
2022-09-28T09:06:53.675Z,15.07
2022-09-28T09:09:24.533Z,16.07
2022-09-28T09:11:57.277Z,15.10
2022-09-28T09:14:55.915Z,16.20
2022-09-28T09:17:27.648Z,15.03
2022-09-28T09:20:00.588Z,16.10
2022-09-28T09:22:36.238Z,15.67
2022-09-28T09:25:08.444Z,16.70
2022-09-28T09:27:44.412Z,18.80
2022-09-28T09:30:13.584Z,18.40
2022-09-28T09:33:12.979Z,17.57
2022-09-28T09:36:01.122Z,16.80
2022-09-28T09:38:51.663Z,15.40
2022-09-28T09:41:25.378Z,16.60
2022-09-28T09:44:12.166Z,15.40
2022-09-28T09:46:41.731Z,16.53
2022-09-28T09:49:12.201Z,15.97
2022-09-28T09:51:44.568Z,14.20
2022-09-28T09:54:17.135Z,13.90
2022-09-28T09:56:46.758Z,13.80
2022-09-28T09:59:16.293Z,12.50
2022-09-28T10:01:44.248Z,12.90
2022-09-28T10:04:16.383Z,11.23
2022-09-28T10:06:45.732Z,11.67
2022-09-28T10:09:16.310Z,11.33
2022-09-28T10:11:44.955Z,10.13
2022-09-28T10:14:15.041Z,10.43
2022-09-28T10:16:43.533Z,10.17
2022-09-28T10:19:12.548Z,9.37
2022-09-28T10:21:41.266Z,8.70
2022-09-28T10:24:13.735Z,9.30
2022-09-28T10:26:42.981Z,8.67
2022-09-28T10:29:15.028Z,8.23
2022-09-28T10:31:43.566Z,8.00
2022-09-28T10:34:14.605Z,7.53
2022-09-28T10:36:48.376Z,7.90
2022-09-28T10:39:32.090Z,6.43
2022-09-28T10:42:02.625Z,6.40
2022-09-28T10:44:30.729Z,7.07
2022-09-28T10:47:00.248Z,6.80
2022-09-28T10:49:28.579Z,7.17
2022-09-28T10:51:57.298Z,7.20
2022-09-28T10:54:28.308Z,6.60
2022-09-28T10:56:57.138Z,7.73
2022-09-28T10:59:29.556Z,7.27
2022-09-28T11:02:00.353Z,7.50
2022-09-28T11:04:29.726Z,7.73
2022-09-28T11:09:31.278Z,7.23
2022-09-28T11:11:59.633Z,7.63
2022-09-28T11:14:28.753Z,6.40
2022-09-28T11:17:18.711Z,6.90
2022-09-28T11:19:46.488Z,6.30
2022-09-28T11:22:30.006Z,6.37
2022-09-28T11:25:20.687Z,5.97
2022-09-28T11:27:57.069Z,5.50
2022-09-28T11:30:26.016Z,5.10
2022-09-28T11:32:55.526Z,3.07
2022-09-28T11:35:24.274Z,4.60
2022-09-28T11:38:01.792Z,3.87
2022-09-28T11:40:37.757Z,4.53
2022-09-28T11:43:12.251Z,4.17
2022-09-28T11:45:48.288Z,2.50
2022-09-28T11:48:16.928Z,3.60
2022-09-28T11:53:32.226Z,2.90
2022-09-28T11:56:08.897Z,3.57
2022-09-28T11:58:39.380Z,3.57
2022-09-28T12:04:27.568Z,2.57
2022-09-28T12:06:58.245Z,2.80
2022-09-28T12:09:28.921Z,3.13
2022-09-28T12:12:01.602Z,3.17
2022-09-28T12:14:30.287Z,3.23
2022-09-28T12:17:06.759Z,3.73
2022-09-28T12:19:38.089Z,4.03
2022-09-28T12:22:11.125Z,4.90
2022-09-28T12:24:40.203Z,3.20
2022-09-28T12:27:14.036Z,2.80
2022-09-28T12:29:43.366Z,3.80
2022-09-28T12:32:13.852Z,3.70
2022-09-28T12:34:42.799Z,1.93
2022-09-28T12:37:25.766Z,1.97
2022-09-28T12:40:03.123Z,2.60
2022-09-28T12:42:49.358Z,2.40
2022-09-28T12:46:09.828Z,1.93
2022-09-28T12:48:50.073Z,2.10
2022-09-28T12:51:41.375Z,2.57
2022-09-28T12:54:15.782Z,2.27
2022-09-28T12:56:57.947Z,1.97
2022-09-28T12:59:29.562Z,2.10
2022-09-28T13:02:14.317Z,2.17
2022-09-28T13:04:52.263Z,2.07
2022-09-28T13:07:23.621Z,2.00
2022-09-28T13:09:58.305Z,1.90
2022-09-28T13:12:34.860Z,2.00
2022-09-28T13:15:38.697Z,2.90
2022-09-28T13:18:12.815Z,1.97
2022-09-28T13:20:57.104Z,1.80
2022-09-28T13:23:26.589Z,1.80
2022-09-28T13:25:57.133Z,1.83
2022-09-28T13:28:27.214Z,1.97
2022-09-28T13:30:56.107Z,1.97
2022-09-28T13:33:30.490Z,2.20
2022-09-28T13:35:58.580Z,2.23
2022-09-28T13:38:51.015Z,2.47
2022-09-28T13:41:29.704Z,2.20
2022-09-28T13:44:16.510Z,1.90
2022-09-28T13:46:47.566Z,2.20
2022-09-28T13:49:18.875Z,1.60
2022-09-28T13:51:53.367Z,1.70
2022-09-28T13:54:32.773Z,1.83
2022-09-28T13:57:04.451Z,2.30
2022-09-28T13:59:32.280Z,1.70
2022-09-28T14:02:06.592Z,1.60
2022-09-28T14:04:55.342Z,2.27
2022-09-28T14:07:24.731Z,2.37
2022-09-28T14:10:17.484Z,1.93
2022-09-28T14:12:47.234Z,2.27
2022-09-28T14:15:45.874Z,2.23
2022-09-28T14:18:28.983Z,2.30
2022-09-28T14:21:20.504Z,1.97
2022-09-28T14:23:58.955Z,2.40
2022-09-28T14:27:08.400Z,1.70
2022-09-28T14:29:37.232Z,1.50
2022-09-28T14:32:05.715Z,1.50
2022-09-28T14:34:35.568Z,1.67
2022-09-28T14:37:24.100Z,1.57
2022-09-28T14:40:09.757Z,2.13
2022-09-28T14:42:37.779Z,2.20
2022-09-28T14:45:36.487Z,1.90
2022-09-28T14:48:21.573Z,2.07
2022-09-28T14:50:50.584Z,2.10
2022-09-28T14:53:22.033Z,2.90
2022-09-28T14:55:51.540Z,2.80
2022-09-28T14:58:22.447Z,2.70
2022-09-28T15:00:52.873Z,2.50
2022-09-28T15:03:20.924Z,2.70
2022-09-28T15:05:50.000Z,3.20
2022-09-28T15:08:22.696Z,3.70
2022-09-28T15:10:51.247Z,3.30
2022-09-28T15:13:25.221Z,2.90
2022-09-28T15:15:54.730Z,3.20
2022-09-28T15:19:03.225Z,2.90
2022-09-28T15:21:36.351Z,3.10
2022-09-28T15:24:27.096Z,2.90
2022-09-28T15:26:55.053Z,3.10
2022-09-28T15:29:23.885Z,3.00
2022-09-28T15:31:54.492Z,3.00
2022-09-28T15:34:48.676Z,2.10
2022-09-28T15:37:17.644Z,2.40
2022-09-28T15:39:48.623Z,2.30
2022-09-28T15:42:17.740Z,2.87
2022-09-28T15:45:06.131Z,2.00
2022-09-28T15:47:34.088Z,2.20
2022-09-28T15:50:03.130Z,2.87
2022-09-28T15:52:36.484Z,2.60
2022-09-28T15:55:14.184Z,2.20
2022-09-28T15:57:42.179Z,2.20
2022-09-28T16:00:25.172Z,2.30
2022-09-28T16:03:01.912Z,2.63
2022-09-28T16:05:39.754Z,2.40
2022-09-28T16:08:13.064Z,2.63
2022-09-28T16:10:42.556Z,2.20
2022-09-28T16:13:20.047Z,2.50
2022-09-28T16:15:50.195Z,2.20
2022-09-28T16:18:20.661Z,2.27
2022-09-28T16:20:49.791Z,2.17
2022-09-28T16:23:27.184Z,2.13
2022-09-28T16:25:58.767Z,2.23
2022-09-28T16:28:51.860Z,2.40
2022-09-28T16:31:28.496Z,2.93
2022-09-28T16:33:58.319Z,2.60
2022-09-28T16:36:30.271Z,2.57
2022-09-28T16:38:58.509Z,2.33
2022-09-28T16:41:30.095Z,2.60
2022-09-28T16:44:00.961Z,2.40
2022-09-28T16:46:34.569Z,2.93
2022-09-28T16:49:03.207Z,3.27
2022-09-28T16:51:31.172Z,3.30
2022-09-28T16:54:18.984Z,2.60
2022-09-28T16:56:48.541Z,2.43
2022-09-28T16:59:18.716Z,2.50
2022-09-28T17:01:47.315Z,2.77
2022-09-28T17:04:16.414Z,2.10
2022-09-28T17:06:45.089Z,2.20
2022-09-28T17:09:13.693Z,1.90
2022-09-28T17:11:41.739Z,2.30
2022-09-28T17:14:12.216Z,2.43
2022-09-28T17:17:06.958Z,1.67
2022-09-28T17:19:31.691Z,2.03
2022-09-28T17:21:59.572Z,1.63
2022-09-28T17:24:27.776Z,2.07
2022-09-28T17:26:56.906Z,2.03
2022-09-28T17:29:28.188Z,2.20
2022-09-28T17:31:56.261Z,2.50
2022-09-28T17:34:24.545Z,2.17
2022-09-28T17:36:52.559Z,2.20
2022-09-28T17:39:20.518Z,1.83
2022-09-28T17:41:49.001Z,2.10
2022-09-28T17:44:16.944Z,1.83
2022-09-28T17:46:49.139Z,2.40
2022-09-28T17:49:17.227Z,2.10
2022-09-28T17:51:45.236Z,2.20
2022-09-28T17:54:13.536Z,2.30
2022-09-28T17:56:42.989Z,2.50
2022-09-28T17:59:13.283Z,2.20
2022-09-28T18:01:41.738Z,2.40
2022-09-28T18:04:23.046Z,2.60
2022-09-28T18:10:42.329Z,2.27
2022-09-28T18:13:10.573Z,2.63
2022-09-28T18:15:38.663Z,2.50
2022-09-28T18:18:09.952Z,2.27
2022-09-28T18:20:39.356Z,2.80
2022-09-28T18:23:07.602Z,3.00
2022-09-28T18:25:35.399Z,3.77
2022-09-28T18:28:03.229Z,3.80
2022-09-28T18:30:31.379Z,3.43
2022-09-28T18:32:59.522Z,3.73
2022-09-28T18:35:27.256Z,3.27
2022-09-28T18:37:56.322Z,2.97
2022-09-28T18:40:24.158Z,3.50
2022-09-28T18:42:52.042Z,3.70
2022-09-28T18:45:20.020Z,3.40
2022-09-28T18:47:47.794Z,3.47
2022-09-28T18:50:16.535Z,3.47
2022-09-28T18:52:44.624Z,3.13
2022-09-28T18:55:14.344Z,3.43
2022-09-28T18:57:43.490Z,3.27
2022-09-28T19:00:12.721Z,4.00
2022-09-28T19:02:40.572Z,3.00
2022-09-28T19:05:09.466Z,3.43
2022-09-28T19:07:37.143Z,3.10
2022-09-28T19:10:06.035Z,3.70
2022-09-28T19:12:35.104Z,5.67
2022-09-28T19:15:03.179Z,6.17
2022-09-28T19:17:31.039Z,5.17
2022-09-28T19:19:59.219Z,4.20
2022-09-28T19:22:26.921Z,3.97
2022-09-28T19:24:54.876Z,4.50
2022-09-28T19:27:22.546Z,4.30
2022-09-28T19:29:52.202Z,4.33
2022-09-28T19:32:19.955Z,4.20
2022-09-28T19:34:48.523Z,4.17
2022-09-28T19:37:16.701Z,3.93
2022-09-28T19:39:45.319Z,4.40
2022-09-28T19:42:13.028Z,4.57
2022-09-28T19:44:40.881Z,5.20
2022-09-28T19:47:12.036Z,4.80
2022-09-28T19:49:40.674Z,5.13
2022-09-28T19:52:16.373Z,4.57
2022-09-28T19:54:45.861Z,5.13
2022-09-28T19:57:15.657Z,4.90
2022-09-28T19:59:43.623Z,4.93
2022-09-28T20:02:13.787Z,4.53
2022-09-28T20:04:41.704Z,5.30
2022-09-28T20:07:09.922Z,5.57
2022-09-28T20:09:37.737Z,5.30
2022-09-28T20:12:05.699Z,5.00
2022-09-28T20:14:38.005Z,5.53
2022-09-28T20:17:08.151Z,4.93
2022-09-28T20:19:37.811Z,5.53
2022-09-28T20:22:05.518Z,5.23
2022-09-28T20:24:33.636Z,5.57
2022-09-28T20:27:01.830Z,5.90
2022-09-28T20:29:31.979Z,6.33
2022-09-28T20:32:00.414Z,5.70
2022-09-28T20:34:28.674Z,6.47
2022-09-28T20:36:57.897Z,5.83
2022-09-28T20:39:26.326Z,5.50
2022-09-28T20:41:55.577Z,5.10
2022-09-28T20:44:23.856Z,5.17
2022-09-28T20:46:52.056Z,5.70
2022-09-28T20:49:19.728Z,5.50
2022-09-28T20:51:47.362Z,6.50
2022-09-28T20:54:16.523Z,5.53
2022-09-28T20:56:44.256Z,6.47
2022-09-28T20:59:12.764Z,5.83
2022-09-28T21:01:40.898Z,8.70
2022-09-28T21:04:09.331Z,7.97
2022-09-28T21:06:38.117Z,7.47
2022-09-28T21:09:06.321Z,7.07
2022-09-28T21:11:35.961Z,6.40
2022-09-28T21:14:04.602Z,7.20
2022-09-28T21:16:33.801Z,7.63
2022-09-28T21:19:01.590Z,7.40
2022-09-28T21:21:29.426Z,6.70
2022-09-28T21:23:57.657Z,6.83
2022-09-28T21:26:27.459Z,7.50
2022-09-28T21:28:56.770Z,8.90
2022-09-28T21:31:28.773Z,8.00
2022-09-28T21:33:57.245Z,7.50
2022-09-28T21:36:25.253Z,6.80
2022-09-28T21:38:53.518Z,7.10
2022-09-28T21:41:21.226Z,9.73
2022-09-28T21:43:48.935Z,8.67
2022-09-28T21:46:18.686Z,7.80
2022-09-28T21:48:46.772Z,8.30
2022-09-28T21:51:15.210Z,10.50
2022-09-28T21:53:43.948Z,7.77
2022-09-28T21:56:12.945Z,8.03
2022-09-28T21:58:40.808Z,6.93
2022-09-28T22:01:09.581Z,8.07
2022-09-28T22:03:39.001Z,7.97
2022-09-28T22:06:07.526Z,7.63
2022-09-28T22:08:36.157Z,7.70
2022-09-28T22:11:05.588Z,7.60
2022-09-28T22:13:34.695Z,7.73
2022-09-28T22:16:02.897Z,7.20
2022-09-28T22:18:31.782Z,6.90
2022-09-28T22:21:01.286Z,6.90
2022-09-28T22:23:29.805Z,7.30
2022-09-28T22:26:01.221Z,7.37
2022-09-28T22:28:29.336Z,7.00
2022-09-28T22:30:57.254Z,7.00
2022-09-28T22:33:25.688Z,7.63
2022-09-28T22:35:53.497Z,6.97
2022-09-28T22:38:23.963Z,7.27
2022-09-28T22:40:52.548Z,7.20
2022-09-28T22:43:20.960Z,7.23
2022-09-28T22:45:49.046Z,6.60
2022-09-28T22:48:16.920Z,7.00
2022-09-28T22:50:51.134Z,6.70
2022-09-28T22:53:19.259Z,6.40
2022-09-28T22:55:48.654Z,7.30
2022-09-28T22:58:16.315Z,6.70
2022-09-28T23:00:44.572Z,6.73
2022-09-28T23:03:12.514Z,6.50
2022-09-28T23:05:40.796Z,6.23
2022-09-28T23:08:08.618Z,5.57
2022-09-28T23:10:36.777Z,6.33
2022-09-28T23:13:05.760Z,6.60
2022-09-28T23:15:34.002Z,6.00
2022-09-28T23:18:01.774Z,6.63
2022-09-28T23:20:29.988Z,6.53
2022-09-28T23:22:57.899Z,5.50
2022-09-28T23:25:25.782Z,5.87
2022-09-28T23:27:54.178Z,6.07
2022-09-28T23:30:24.519Z,6.00
2022-09-28T23:32:53.221Z,5.90
2022-09-28T23:35:21.161Z,6.00
2022-09-28T23:37:51.999Z,5.50
2022-09-28T23:40:19.916Z,5.50
2022-09-28T23:42:48.023Z,5.27
2022-09-28T23:45:16.009Z,5.70
2022-09-28T23:47:45.936Z,5.17
2022-09-28T23:50:13.822Z,5.10
2022-09-28T23:52:42.041Z,5.00
2022-09-28T23:55:10.274Z,5.37
2022-09-28T23:57:40.323Z,6.03
